Latest Coastal Weather Observations for Friendly Beaches

IDT60701

Issued at 10:22 pm EST Thursday 21 September 2017 (issued every 10 minutes, with the page automatically refreshed every 10 minutes)

About coastal observations | Map of coastal stations | Coastal observations for TAS | Marine services | Other Formats
Station Details ID: 092114 Name: FRIENDLY BEACHES Lat: -42.00 Lon: 148.28 Height: 55.0 m
Data from the previous 72 hours. | See also: Recent months at Friendly Beaches
Date/Time
EST
Temp
°C
Wind Pressure Rain since
9am
mm
Weather Cloud Vis
km
Sea
Height
m
Swell
Dir  Spd
kts
Gust
kts
hPa Trend Height
m
Period
s
Dir
21/10:00pm 13.4 NW 5 8 1006.0 - 0.0 - - - - - - -
21/09:30pm 14.1 WNW 6 9 1005.9 - 0.0 - - - - - - -
21/09:00pm 14.7 NW 8 15 1005.5 - 0.0 - - - - - - -
21/08:30pm 14.6 NW 7 13 1005.3 - 0.0 - - - - - - -
21/08:00pm 14.0 WNW 4 7 1004.9 - 0.0 - - - - - - -
21/07:30pm 14.9 WNW 5 11 1004.6 - 0.0 - - - - - - -
21/07:00pm 15.2 WNW 5 9 1004.2 - 0.0 - - - - - - -
21/06:30pm 15.7 WNW 5 10 1003.6 - 0.0 - - - - - - -
21/06:00pm 16.2 WNW 5 9 1003.4 - 0.0 - - - - - - -
21/05:30pm 18.0 WNW 7 16 1002.7 - 0.0 - - - - - - -
21/05:00pm 19.2 WNW 6 12 1002.1 - 0.0 - - - - - - -
21/04:30pm 19.9 NW 10 17 1002.0 - 0.0 - - - - - - -
21/04:00pm 20.8 N 9 19 1001.7 - 0.0 - - - - - - -
21/03:30pm 20.9 N 12 19 1001.5 - 0.0 - - - - - - -
21/03:00pm 21.1 N 10 16 1001.8 - 0.0 - - - - - - -
21/02:30pm 20.0 N 15 27 1002.3 - 0.0 - - - - - - -
21/02:28pm 19.6 N 15 27 1002.2 - 0.0 - - - - - - -
21/02:00pm 19.5 N 14 22 1002.4 - 0.0 - - - - - - -
21/01:53pm 19.5 N 15 27 1002.5 - 0.0 - - - - - - -
21/01:30pm 18.1 NNE 17 25 1003.0 - 0.0 - - - - - - -
21/01:00pm 17.9 NNE 16 25 1004.0 - 0.0 - - - - - - -
21/12:49pm 18.2 NNE 15 26 1004.3 - 0.0 - - - - - - -
21/12:30pm 17.6 NNE 15 23 1004.8 - 0.0 - - - - - - -
21/12:00pm 17.7 NNE 15 23 1006.0 - 0.0 - - - - - - -
21/11:30am 17.4 NNE 11 17 1007.1 - 0.0 - - - - - - -
21/11:00am 14.6 NNE 4 7 1007.5 - 0.0 - - - - - - -
21/10:30am 13.9 NNW 5 11 1008.4 - 0.0 - - - - - - -
21/10:00am 11.9 NNE 2 3 1008.6 - 0.0 - - - - - - -
21/09:30am 11.5 NNE 2 4 1009.2 - 0.0 - - - - - - -
21/09:00am 11.6 NNE 7 9 1009.1 - 0.0 - - - - - - -
21/08:30am 11.4 NNE 6 8 1009.6 - 0.0 - - - - - - -
21/08:00am 12.4 N 8 12 1009.4 - 0.0 - - - - - - -
21/07:30am 11.7 NNE 6 9 1009.3 - 0.0 - - - - - - -
21/07:00am 11.1 NNE 4 6 1009.6 - 0.0 - - - - - - -
21/06:30am 11.6 W 2 5 1009.9 - 0.0 - - - - - - -
21/06:00am 11.9 W 6 9 1010.0 - 0.0 - - - - - - -
21/05:30am 11.7 WNW 8 13 1010.2 - 0.0 - - - - - - -
21/05:00am 11.0 WNW 6 10 1010.4 - 0.0 - - - - - - -
21/04:30am 10.6 NE 7 14 1008.7 - 0.0 - - - - - - -
21/04:29am 10.7 NE 7 13 1008.9 - 0.0 - - - - - - -
21/04:00am 11.1 NW 5 8 1010.9 - 0.0 - - - - - - -
21/03:30am 10.5 W 2 5 1010.5 - 0.0 - - - - - - -
21/03:00am 10.5 NNW 1 2 1010.5 - 0.0 - - - - - - -
21/02:30am 10.2 ENE 3 4 1010.2 - 0.0 - - - - - - -
21/02:00am 9.9 NNE 3 5 1010.8 - 0.0 - - - - - - -
21/01:30am 9.7 WNW 2 3 1011.8 - 0.0 - - - - - - -
21/01:00am 10.6 WNW 4 6 1013.0 - 0.0 - - - - - - -
21/12:30am 11.7 WNW 2 5 1012.4 - 0.0 - - - - - - -
21/12:00am 12.0 N 5 8 1011.8 - 0.0 - - - - - - -
 
Date/Time
EST
Temp
°C
Wind Pressure Rain since
9am
mm
Weather Cloud Vis
km
Sea
Height
m
Swell
Dir  Spd
kts
Gust
kts
hPa Trend Height
m
Period
s
Dir
20/11:30pm 10.5 NE 2 3 1012.3 - 0.0 - - - - - - -
20/11:00pm 10.7 N 5 8 1012.8 - 0.0 - - - - - - -
20/10:30pm 9.0 N 1 2 1013.0 - 0.0 - - - - - - -
20/10:00pm 9.7 E 1 3 1013.0 - 0.0 - - - - - - -
20/09:30pm 9.7 CALM 0 0 1013.5 - 0.0 - - - - - - -
20/09:00pm 10.1 N 3 5 1013.3 - 0.0 - - - - - - -
20/08:30pm 10.1 ESE 3 4 1013.2 - 0.0 - - - - - - -
20/08:00pm 9.9 CALM 0 0 1013.7 - 0.0 - - - - - - -
20/07:30pm 10.3 NNE 3 5 1013.2 - 0.0 - - - - - - -
20/07:00pm 9.9 NNE 4 5 1012.9 - 0.0 - - - - - - -
20/06:30pm 9.8 NNE 5 7 1012.9 - 0.0 - - - - - - -
20/06:00pm 10.2 NNE 5 10 1012.8 - 0.0 - - - - - - -
20/05:30pm 11.4 NE 6 9 1012.6 - 0.0 - - - - - - -
20/05:00pm 11.0 NNE 8 13 1012.6 - 0.0 - - - - - - -
20/04:30pm 11.4 NNE 9 13 1012.6 - 0.0 - - - - - - -
20/04:00pm 11.7 NE 10 16 1012.4 - 0.0 - - - - - - -
20/03:30pm 13.8 NE 9 15 1012.9 - 0.0 - - - - - - -
20/03:00pm 14.0 NNE 10 15 1013.2 - 0.0 - - - - - - -
20/02:30pm 14.5 NE 10 16 1013.4 - 0.0 - - - - - - -
20/02:00pm 14.4 NE 11 16 1013.6 - 0.0 - - - - - - -
20/01:30pm 14.2 NE 11 17 1014.1 - 0.0 - - - - - - -
20/01:00pm 14.7 NE 10 16 1014.8 - 0.0 - - - - - - -
20/12:30pm 14.2 NE 10 16 1015.4 - 0.0 - - - - - - -
20/12:00pm 14.5 NE 10 15 1015.5 - 0.0 - - - - - - -
20/11:30am 13.5 NE 9 14 1016.0 - 0.0 - - - - - - -
20/11:00am 11.8 NE 9 13 1016.4 - 0.0 - - - - - - -
20/10:30am 12.0 NE 6 10 1016.9 - 0.0 - - - - - - -
20/10:00am 11.6 ENE 5 9 1017.3 - 0.0 - - - - - - -
20/09:30am 10.9 NW 3 5 1017.7 - 0.0 - - - - - - -
20/09:00am 11.1 W 2 5 1017.8 - 0.0 - - - - - - -
20/08:30am 9.5 NNW 2 4 1018.1 - 0.0 - - - - - - -
20/08:00am 7.4 WNW 3 5 1018.1 - 0.0 - - - - - - -
20/07:30am 5.6 NW 4 4 1018.1 - 0.0 - - - - - - -
20/07:00am 4.8 NW 3 4 1018.2 - 0.0 - - - - - - -
20/06:30am 3.8 WNW 4 6 1018.2 - 0.0 - - - - - - -
20/06:00am 3.9 WNW 4 5 1017.9 - 0.0 - - - - - - -
20/05:30am 4.3 W 4 5 1017.3 - 0.0 - - - - - - -
20/05:00am 4.2 W 5 6 1017.1 - 0.0 - - - - - - -
20/04:30am 3.9 W 4 6 1017.0 - 0.0 - - - - - - -
20/04:00am 4.2 WSW 4 6 1016.8 - 0.0 - - - - - - -
20/03:30am 5.1 W 7 10 1016.8 - 0.0 - - - - - - -
20/03:00am 4.1 W 5 7 1017.2 - 0.0 - - - - - - -
20/02:30am 4.0 W 5 7 1017.1 - 0.0 - - - - - - -
20/02:00am 4.8 W 7 9 1016.9 - 0.0 - - - - - - -
20/01:30am 5.2 WSW 7 10 1017.0 - 0.0 - - - - - - -
20/01:00am 5.3 W 6 10 1017.3 - 0.0 - - - - - - -
20/12:30am 5.1 WSW 5 7 1017.6 - 0.0 - - - - - - -
20/12:00am 5.1 W 5 8 1017.4 - 0.0 - - - - - - -
 
Date/Time
EST
Temp
°C
Wind Pressure Rain since
9am
mm
Weather Cloud Vis
km
Sea
Height
m
Swell
Dir  Spd
kts
Gust
kts
hPa Trend Height
m
Period
s
Dir
19/11:30pm 5.7 W 5 8 1017.4 - 0.0 - - - - - - -
19/11:00pm 5.8 W 4 5 1017.5 - 0.0 - - - - - - -
19/10:30pm 5.9 WSW 3 6 1017.5 - 0.0 - - - - - - -
19/10:00pm 6.3 W 5 7 1017.1 - 0.0 - - - - - - -
19/09:30pm 6.9 W 6 9 1016.8 - 0.0 - - - - - - -
19/09:00pm 7.3 WSW 7 11 1016.5 - 0.0 - - - - - - -
19/08:30pm 7.9 WSW 7 12 1016.0 - 0.0 - - - - - - -
19/08:00pm 8.5 WSW 7 14 1015.8 - 0.0 - - - - - - -
19/07:30pm 8.7 WSW 5 10 1015.4 - 0.0 - - - - - - -
19/07:00pm 8.6 SW 6 11 1014.9 - 0.0 - - - - - - -
19/06:30pm 9.2 WSW 9 15 1014.2 - 0.0 - - - - - - -
19/06:00pm 9.3 SW 5 15 1013.8 - 0.0 - - - - - - -
19/05:30pm 9.4 SSW 7 12 1013.3 - 0.0 - - - - - - -
19/05:00pm 11.9 SW 11 21 1012.4 - 0.0 - - - - - - -
19/04:30pm 11.7 SW 12 20 1011.7 - 0.0 - - - - - - -
19/04:00pm 12.5 SSW 11 18 1011.1 - 0.0 - - - - - - -
19/03:30pm 11.6 SSW 12 19 1010.7 - 0.0 - - - - - - -
19/03:00pm 11.6 SSW 9 17 1010.4 - 0.0 - - - - - - -
19/02:30pm 13.1 WSW 14 24 1009.9 - 0.0 - - - - - - -
19/02:00pm 12.6 SW 11 20 1009.6 - 0.0 - - - - - - -
19/01:30pm 12.9 WSW 14 23 1009.2 - 0.0 - - - - - - -
19/01:00pm 13.1 WSW 13 26 1008.8 - 0.0 - - - - - - -
19/12:30pm 12.8 WSW 10 17 1008.5 - 0.0 - - - - - - -
19/12:00pm 14.1 WSW 11 17 1008.3 - 0.0 - - - - - - -
19/11:30am 12.7 WSW 10 18 1008.3 - 0.0 - - - - - - -
19/11:00am 11.9 WSW 14 20 1008.1 - 0.0 - - - - - - -
19/10:30am 12.8 WSW 13 24 1007.4 - 0.0 - - - - - - -
19/10:00am 12.6 SSW 15 26 1007.1 - 0.0 - - - - - - -
19/09:54am 13.0 SW 14 27 1007.1 - 0.0 - - - - - - -
19/09:30am 10.8 WSW 13 25 1007.0 - 0.0 - - - - - - -
19/09:00am 10.4 WSW 11 20 1006.3 - 0.0 - - - - - - -
19/08:30am 11.2 SW 11 21 1005.8 - 0.0 - - - - - - -
19/08:00am 10.5 WSW 13 23 1004.8 - 0.0 - - - - - - -
19/07:30am 10.7 WSW 11 21 1004.0 - 0.0 - - - - - - -
19/07:00am 10.3 WSW 7 12 1003.7 - 0.0 - - - - - - -
19/06:30am 9.9 WSW 8 14 1002.3 - 0.0 - - - - - - -
19/06:00am 10.7 WSW 9 15 1001.7 - 0.0 - - - - - - -
19/05:30am 9.9 WNW 4 7 1000.7 - 0.0 - - - - - - -
19/05:00am 8.8 CALM 0 1 1000.1 - 0.0 - - - - - - -
19/04:30am 8.8 NNW 3 5 999.6 - 0.0 - - - - - - -
19/04:00am 9.9 SSW 2 3 999.6 - 0.0 - - - - - - -
19/03:30am 10.9 WNW 4 8 999.3 - 0.0 - - - - - - -
19/03:00am 11.3 NNW 6 8 999.4 - 0.0 - - - - - - -
19/02:30am 9.9 NNW 4 7 999.9 - 0.0 - - - - - - -
19/02:00am 10.5 WSW 2 3 1000.5 - 0.0 - - - - - - -
19/01:30am 11.1 W 3 5 1000.8 - 0.0 - - - - - - -
19/01:00am 12.5 WNW 8 13 1001.7 - 0.0 - - - - - - -
19/12:30am 14.3 NW 10 20 1001.5 - 0.0 - - - - - - -
19/12:00am 14.1 NNW 7 15 1001.3 - 0.0 - - - - - - -
 
Date/Time
EST
Temp
°C
Wind Pressure Rain since
9am
mm
Weather Cloud Vis
km
Sea
Height
m
Swell
Dir  Spd
kts
Gust
kts
hPa Trend Height
m
Period
s
Dir
18/11:30pm 14.8 NNW 9 17 1002.5 - 0.0 - - - - - - -
18/11:00pm 14.8 N 10 15 1002.8 - 0.0 - - - - - - -
18/10:30pm 14.9 NNW 8 14 1003.2 - 0.0 - - - - - - -

Other Formats:

Comma delimited format used in spreadsheet applications
http://www.bom.gov.au/fwo/IDT60701/IDT60701.94987.axf

JavaScript Object Notation format (JSON) in row-major order
http://www.bom.gov.au/fwo/IDT60701/IDT60701.94987.json